sensor_id;sensor_type;location;lat;lon;timestamp;pressure;altitude;pressure_sealevel;temperature;humidity
59877;BME280;45749;51.140;17.184;2023-09-08T00:01:56;100902.41;;;18.24;73.08
59877;BME280;45749;51.140;17.184;2023-09-08T00:04:21;100886.97;;;18.18;73.35
59877;BME280;45749;51.140;17.184;2023-09-08T00:06:48;100903.41;;;18.23;73.13
59877;BME280;45749;51.140;17.184;2023-09-08T00:09:14;100900.34;;;18.18;73.19
59877;BME280;45749;51.140;17.184;2023-09-08T00:11:39;100911.44;;;18.23;73.50
59877;BME280;45749;51.140;17.184;2023-09-08T00:14:04;100895.81;;;18.19;73.57
59877;BME280;45749;51.140;17.184;2023-09-08T00:16:30;100892.63;;;18.15;73.41
59877;BME280;45749;51.140;17.184;2023-09-08T00:18:56;100901.47;;;18.16;73.70
59877;BME280;45749;51.140;17.184;2023-09-08T00:21:22;100895.03;;;18.09;73.76
59877;BME280;45749;51.140;17.184;2023-09-08T00:23:47;100891.53;;;18.08;73.93
59877;BME280;45749;51.140;17.184;2023-09-08T00:26:12;100901.22;;;18.09;73.68
59877;BME280;45749;51.140;17.184;2023-09-08T00:28:38;100891.81;;;18.05;74.07
59877;BME280;45749;51.140;17.184;2023-09-08T00:31:03;100897.16;;;18.05;74.13
59877;BME280;45749;51.140;17.184;2023-09-08T00:33:30;100903.19;;;18.07;73.95
59877;BME280;45749;51.140;17.184;2023-09-08T00:35:55;100890.97;;;18.04;74.41
59877;BME280;45749;51.140;17.184;2023-09-08T00:38:22;100892.81;;;18.04;74.32
59877;BME280;45749;51.140;17.184;2023-09-08T00:40:48;100894.78;;;18.02;74.25
59877;BME280;45749;51.140;17.184;2023-09-08T00:43:13;100886.91;;;18.00;74.65
59877;BME280;45749;51.140;17.184;2023-09-08T00:45:40;100880.78;;;17.90;74.69
59877;BME280;45749;51.140;17.184;2023-09-08T00:48:07;100881.31;;;17.94;74.90
59877;BME280;45749;51.140;17.184;2023-09-08T00:50:33;100892.84;;;17.94;74.60
59877;BME280;45749;51.140;17.184;2023-09-08T00:52:59;100882.88;;;17.87;74.48
59877;BME280;45749;51.140;17.184;2023-09-08T00:55:24;100881.34;;;17.84;74.59
59877;BME280;45749;51.140;17.184;2023-09-08T00:57:50;100889.91;;;17.88;74.57
59877;BME280;45749;51.140;17.184;2023-09-08T01:00:15;100889.75;;;17.89;74.93
59877;BME280;45749;51.140;17.184;2023-09-08T01:02:41;100883.72;;;17.87;74.76
59877;BME280;45749;51.140;17.184;2023-09-08T01:05:06;100890.59;;;17.90;74.57
59877;BME280;45749;51.140;17.184;2023-09-08T01:07:31;100878.53;;;17.86;74.45
59877;BME280;45749;51.140;17.184;2023-09-08T01:09:57;100873.75;;;17.79;74.55
59877;BME280;45749;51.140;17.184;2023-09-08T01:12:22;100878.50;;;17.76;74.65
59877;BME280;45749;51.140;17.184;2023-09-08T01:14:48;100883.00;;;17.75;74.69
59877;BME280;45749;51.140;17.184;2023-09-08T01:17:13;100877.28;;;17.70;74.78
59877;BME280;45749;51.140;17.184;2023-09-08T01:19:38;100860.59;;;17.58;75.01
59877;BME280;45749;51.140;17.184;2023-09-08T01:25:19;100869.03;;;17.54;75.34
59877;BME280;45749;51.140;17.184;2023-09-08T01:27:47;100877.72;;;17.56;75.21
59877;BME280;45749;51.140;17.184;2023-09-08T01:30:14;100865.22;;;17.56;75.02
59877;BME280;45749;51.140;17.184;2023-09-08T01:32:40;100867.75;;;17.58;75.17
59877;BME280;45749;51.140;17.184;2023-09-08T01:35:07;100868.03;;;17.55;75.19
59877;BME280;45749;51.140;17.184;2023-09-08T01:37:32;100856.38;;;17.46;75.26
59877;BME280;45749;51.140;17.184;2023-09-08T01:39:58;100862.44;;;17.39;75.40
59877;BME280;45749;51.140;17.184;2023-09-08T01:42:23;100861.06;;;17.34;75.16
59877;BME280;45749;51.140;17.184;2023-09-08T01:44:48;100865.13;;;17.29;75.20
59877;BME280;45749;51.140;17.184;2023-09-08T01:47:13;100873.25;;;17.27;75.68
59877;BME280;45749;51.140;17.184;2023-09-08T01:49:39;100870.19;;;17.22;75.78
59877;BME280;45749;51.140;17.184;2023-09-08T01:52:04;100865.28;;;17.18;75.71
59877;BME280;45749;51.140;17.184;2023-09-08T01:54:30;100869.06;;;17.15;75.69
59877;BME280;45749;51.140;17.184;2023-09-08T01:56:55;100862.91;;;17.15;75.68
59877;BME280;45749;51.140;17.184;2023-09-08T01:59:20;100871.72;;;17.15;75.91
59877;BME280;45749;51.140;17.184;2023-09-08T02:01:46;100864.00;;;17.12;75.92
59877;BME280;45749;51.140;17.184;2023-09-08T02:04:11;100863.44;;;17.08;76.36
59877;BME280;45749;51.140;17.184;2023-09-08T02:06:36;100867.22;;;17.06;76.31
59877;BME280;45749;51.140;17.184;2023-09-08T02:09:02;100873.00;;;17.11;76.03
59877;BME280;45749;51.140;17.184;2023-09-08T02:11:27;100866.81;;;17.10;76.43
59877;BME280;45749;51.140;17.184;2023-09-08T02:13:52;100864.56;;;17.06;76.48
59877;BME280;45749;51.140;17.184;2023-09-08T02:16:17;100869.63;;;17.09;76.36
59877;BME280;45749;51.140;17.184;2023-09-08T02:18:44;100862.47;;;17.09;76.21
59877;BME280;45749;51.140;17.184;2023-09-08T02:21:10;100861.06;;;17.05;76.48
59877;BME280;45749;51.140;17.184;2023-09-08T02:23:35;100851.78;;;17.00;76.52
59877;BME280;45749;51.140;17.184;2023-09-08T02:26:00;100858.53;;;17.04;76.41
59877;BME280;45749;51.140;17.184;2023-09-08T02:28:26;100864.13;;;17.01;76.23
59877;BME280;45749;51.140;17.184;2023-09-08T02:30:51;100860.06;;;16.97;76.44
59877;BME280;45749;51.140;17.184;2023-09-08T02:33:16;100870.47;;;17.00;76.89
59877;BME280;45749;51.140;17.184;2023-09-08T02:35:43;100864.28;;;16.99;76.73
59877;BME280;45749;51.140;17.184;2023-09-08T02:38:09;100856.84;;;16.93;76.83
59877;BME280;45749;51.140;17.184;2023-09-08T02:40:34;100855.44;;;16.89;76.70
59877;BME280;45749;51.140;17.184;2023-09-08T02:43:00;100864.13;;;16.91;76.62
59877;BME280;45749;51.140;17.184;2023-09-08T02:45:26;100855.56;;;16.87;76.79
59877;BME280;45749;51.140;17.184;2023-09-08T02:47:51;100852.34;;;16.84;76.84
59877;BME280;45749;51.140;17.184;2023-09-08T02:50:16;100847.44;;;16.79;76.81
59877;BME280;45749;51.140;17.184;2023-09-08T02:52:42;100853.75;;;16.78;76.67
59877;BME280;45749;51.140;17.184;2023-09-08T02:55:07;100846.03;;;16.75;77.17
59877;BME280;45749;51.140;17.184;2023-09-08T02:57:33;100841.91;;;16.71;77.04
59877;BME280;45749;51.140;17.184;2023-09-08T02:59:58;100842.63;;;16.73;77.04
59877;BME280;45749;51.140;17.184;2023-09-08T03:02:25;100840.13;;;16.72;77.27
59877;BME280;45749;51.140;17.184;2023-09-08T03:04:50;100838.03;;;16.75;77.04
59877;BME280;45749;51.140;17.184;2023-09-08T03:07:16;100842.13;;;16.79;76.89
59877;BME280;45749;51.140;17.184;2023-09-08T03:09:41;100855.16;;;16.82;77.28
59877;BME280;45749;51.140;17.184;2023-09-08T03:12:06;100849.69;;;16.84;76.69
59877;BME280;45749;51.140;17.184;2023-09-08T03:14:32;100843.38;;;16.75;76.68
59877;BME280;45749;51.140;17.184;2023-09-08T03:16:57;100834.19;;;16.68;76.53
59877;BME280;45749;51.140;17.184;2023-09-08T03:19:22;100830.97;;;16.64;77.08
59877;BME280;45749;51.140;17.184;2023-09-08T03:21:48;100839.94;;;16.63;77.19
59877;BME280;45749;51.140;17.184;2023-09-08T03:24:13;100832.94;;;16.62;76.73
59877;BME280;45749;51.140;17.184;2023-09-08T03:26:38;100844.00;;;16.58;76.84
59877;BME280;45749;51.140;17.184;2023-09-08T03:29:05;100843.03;;;16.59;76.93
59877;BME280;45749;51.140;17.184;2023-09-08T03:31:31;100840.09;;;16.62;77.14
59877;BME280;45749;51.140;17.184;2023-09-08T03:33:56;100840.38;;;16.59;77.12
59877;BME280;45749;51.140;17.184;2023-09-08T03:36:21;100825.06;;;16.51;77.13
59877;BME280;45749;51.140;17.184;2023-09-08T03:38:47;100843.72;;;16.61;77.30
59877;BME280;45749;51.140;17.184;2023-09-08T03:41:12;100838.94;;;16.55;77.09
59877;BME280;45749;51.140;17.184;2023-09-08T03:43:37;100840.66;;;16.56;77.12
59877;BME280;45749;51.140;17.184;2023-09-08T03:46:03;100845.56;;;16.60;77.35
59877;BME280;45749;51.140;17.184;2023-09-08T03:48:28;100830.25;;;16.53;77.19
59877;BME280;45749;51.140;17.184;2023-09-08T03:50:53;100837.28;;;16.54;77.02
59877;BME280;45749;51.140;17.184;2023-09-08T03:53:19;100841.22;;;16.59;76.91
59877;BME280;45749;51.140;17.184;2023-09-08T03:55:44;100838.13;;;16.64;76.59
59877;BME280;45749;51.140;17.184;2023-09-08T03:58:09;100840.09;;;16.62;76.88
59877;BME280;45749;51.140;17.184;2023-09-08T04:00:35;100834.22;;;16.58;76.81
59877;BME280;45749;51.140;17.184;2023-09-08T04:03:00;100843.88;;;16.59;76.47
59877;BME280;45749;51.140;17.184;2023-09-08T04:05:26;100836.00;;;16.58;76.46
59877;BME280;45749;51.140;17.184;2023-09-08T04:07:51;100836.16;;;16.56;76.74
59877;BME280;45749;51.140;17.184;2023-09-08T04:10:16;100840.22;;;16.60;76.38
59877;BME280;45749;51.140;17.184;2023-09-08T04:12:42;100839.69;;;16.67;76.43
59877;BME280;45749;51.140;17.184;2023-09-08T04:15:08;100840.09;;;16.62;76.36
59877;BME280;45749;51.140;17.184;2023-09-08T04:17:34;100842.88;;;16.60;76.08
59877;BME280;45749;51.140;17.184;2023-09-08T04:20:01;100842.63;;;16.63;76.37
59877;BME280;45749;51.140;17.184;2023-09-08T04:22:26;100841.50;;;16.56;76.36
59877;BME280;45749;51.140;17.184;2023-09-08T04:24:51;100849.19;;;16.50;76.48
59877;BME280;45749;51.140;17.184;2023-09-08T04:27:19;100850.19;;;16.49;76.48
59877;BME280;45749;51.140;17.184;2023-09-08T04:29:44;100840.59;;;16.36;76.71
59877;BME280;45749;51.140;17.184;2023-09-08T04:32:10;100851.25;;;16.36;76.96
59877;BME280;45749;51.140;17.184;2023-09-08T04:34:37;100849.84;;;16.32;76.83
59877;BME280;45749;51.140;17.184;2023-09-08T04:37:03;100846.75;;;16.27;77.03
59877;BME280;45749;51.140;17.184;2023-09-08T04:39:28;100849.94;;;16.21;77.38
59877;BME280;45749;51.140;17.184;2023-09-08T04:41:53;100845.03;;;16.16;77.29
59877;BME280;45749;51.140;17.184;2023-09-08T04:44:19;100845.72;;;16.18;77.64
59877;BME280;45749;51.140;17.184;2023-09-08T04:46:44;100846.59;;;16.19;77.65
59877;BME280;45749;51.140;17.184;2023-09-08T04:49:11;100847.28;;;16.21;77.79
59877;BME280;45749;51.140;17.184;2023-09-08T04:51:36;100848.13;;;16.22;77.44
59877;BME280;45749;51.140;17.184;2023-09-08T04:54:01;100841.25;;;16.19;77.83
59877;BME280;45749;51.140;17.184;2023-09-08T04:56:26;100840.28;;;16.20;77.95
59877;BME280;45749;51.140;17.184;2023-09-08T04:58:52;100832.28;;;16.20;77.87
59877;BME280;45749;51.140;17.184;2023-09-08T05:01:17;100835.78;;;16.21;77.78
59877;BME280;45749;51.140;17.184;2023-09-08T05:03:43;100839.56;;;16.18;77.76
59877;BME280;45749;51.140;17.184;2023-09-08T05:06:08;100822.44;;;16.11;78.17
59877;BME280;45749;51.140;17.184;2023-09-08T05:08:33;100841.16;;;16.30;78.01
59877;BME280;45749;51.140;17.184;2023-09-08T05:10:58;100842.00;;;16.40;77.67
59877;BME280;45749;51.140;17.184;2023-09-08T05:13:24;100839.34;;;16.40;77.65
59877;BME280;45749;51.140;17.184;2023-09-08T05:15:52;100833.59;;;16.35;77.92
59877;BME280;45749;51.140;17.184;2023-09-08T05:18:24;100842.16;;;16.39;78.05
59877;BME280;45749;51.140;17.184;2023-09-08T05:20:50;100827.81;;;16.30;77.96
59877;BME280;45749;51.140;17.184;2023-09-08T05:23:15;100832.34;;;16.39;78.25
59877;BME280;45749;51.140;17.184;2023-09-08T05:25:42;100834.31;;;16.47;78.26
59877;BME280;45749;51.140;17.184;2023-09-08T05:28:07;100834.75;;;16.52;78.31
59877;BME280;45749;51.140;17.184;2023-09-08T05:30:32;100832.66;;;16.56;78.30
59877;BME280;45749;51.140;17.184;2023-09-08T05:32:58;100839.53;;;16.58;77.96
59877;BME280;45749;51.140;17.184;2023-09-08T05:35:24;100840.22;;;16.60;78.36
59877;BME280;45749;51.140;17.184;2023-09-08T05:37:49;100839.94;;;16.63;78.57
59877;BME280;45749;51.140;17.184;2023-09-08T05:40:14;100842.34;;;16.67;78.69
59877;BME280;45749;51.140;17.184;2023-09-08T05:42:40;100838.84;;;16.66;78.74
59877;BME280;45749;51.140;17.184;2023-09-08T05:45:05;100837.56;;;16.70;78.95
59877;BME280;45749;51.140;17.184;2023-09-08T05:47:31;100836.22;;;16.76;79.11
59877;BME280;45749;51.140;17.184;2023-09-08T05:49:56;100833.28;;;16.79;79.12
59877;BME280;45749;51.140;17.184;2023-09-08T05:52:21;100842.41;;;16.86;79.42
59877;BME280;45749;51.140;17.184;2023-09-08T05:54:46;100843.78;;;16.90;79.19
59877;BME280;45749;51.140;17.184;2023-09-08T05:57:12;100838.47;;;16.90;79.68
59877;BME280;45749;51.140;17.184;2023-09-08T05:59:37;100841.84;;;16.92;79.99
59877;BME280;45749;51.140;17.184;2023-09-08T06:02:02;100842.69;;;16.93;79.97
59877;BME280;45749;51.140;17.184;2023-09-08T06:04:28;100839.03;;;17.03;79.98
59877;BME280;45749;51.140;17.184;2023-09-08T06:06:53;100843.25;;;17.06;80.04
59877;BME280;45749;51.140;17.184;2023-09-08T06:09:18;100839.56;;;17.07;80.81
59877;BME280;45749;51.140;17.184;2023-09-08T06:11:44;100832.28;;;17.09;80.51
59877;BME280;45749;51.140;17.184;2023-09-08T06:14:09;100835.38;;;17.14;80.96
59877;BME280;45749;51.140;17.184;2023-09-08T06:16:34;100825.28;;;17.18;80.60
59877;BME280;45749;51.140;17.184;2023-09-08T06:19:01;100819.38;;;17.14;81.32
59877;BME280;45749;51.140;17.184;2023-09-08T06:21:28;100834.53;;;17.23;81.25
59877;BME280;45749;51.140;17.184;2023-09-08T06:23:54;100817.41;;;17.16;81.14
59877;BME280;45749;51.140;17.184;2023-09-08T06:26:19;100835.91;;;17.27;81.72
59877;BME280;45749;51.140;17.184;2023-09-08T06:28:44;100832.00;;;17.31;81.87
59877;BME280;45749;51.140;17.184;2023-09-08T06:31:10;100832.41;;;17.37;82.25
59877;BME280;45749;51.140;17.184;2023-09-08T06:33:35;100843.63;;;17.40;82.33
59877;BME280;45749;51.140;17.184;2023-09-08T06:36:01;100845.44;;;17.40;82.75
59877;BME280;45749;51.140;17.184;2023-09-08T06:38:26;100839.44;;;17.38;82.71
59877;BME280;45749;51.140;17.184;2023-09-08T06:40:51;100822.72;;;17.35;81.90
59877;BME280;45749;51.140;17.184;2023-09-08T06:43:18;100840.09;;;17.49;82.94
59877;BME280;45749;51.140;17.184;2023-09-08T06:45:47;100840.66;;;17.53;82.66
59877;BME280;45749;51.140;17.184;2023-09-08T06:48:13;100840.53;;;17.54;83.05
59877;BME280;45749;51.140;17.184;2023-09-08T06:50:38;100848.78;;;17.61;82.98
59877;BME280;45749;51.140;17.184;2023-09-08T06:53:03;100853.56;;;17.67;83.13
59877;BME280;45749;51.140;17.184;2023-09-08T06:55:29;100854.22;;;17.69;83.06
59877;BME280;45749;51.140;17.184;2023-09-08T06:57:54;100842.28;;;17.73;83.27
59877;BME280;45749;51.140;17.184;2023-09-08T07:00:19;100841.72;;;17.79;83.27
59877;BME280;45749;51.140;17.184;2023-09-08T07:02:45;100842.53;;;17.90;83.32
59877;BME280;45749;51.140;17.184;2023-09-08T07:05:11;100839.56;;;17.93;83.50
59877;BME280;45749;51.140;17.184;2023-09-08T07:07:36;100846.72;;;18.02;83.85
59877;BME280;45749;51.140;17.184;2023-09-08T07:10:03;100830.56;;;18.03;83.78
59877;BME280;45749;51.140;17.184;2023-09-08T07:12:28;100838.94;;;18.09;83.60
59877;BME280;45749;51.140;17.184;2023-09-08T07:14:54;100846.91;;;18.18;83.91
59877;BME280;45749;51.140;17.184;2023-09-08T07:17:19;100843.25;;;18.19;84.08
59877;BME280;45749;51.140;17.184;2023-09-08T07:19:45;100849.69;;;18.26;84.27
59877;BME280;45749;51.140;17.184;2023-09-08T07:22:10;100846.03;;;18.27;84.42
59877;BME280;45749;51.140;17.184;2023-09-08T07:24:35;100844.44;;;18.35;84.07
59877;BME280;45749;51.140;17.184;2023-09-08T07:27:00;100845.69;;;18.40;84.39
59877;BME280;45749;51.140;17.184;2023-09-08T07:29:26;100840.88;;;18.44;84.47
59877;BME280;45749;51.140;17.184;2023-09-08T07:31:52;100822.31;;;18.42;83.97
59877;BME280;45749;51.140;17.184;2023-09-08T07:34:17;100850.91;;;18.60;84.36
59877;BME280;45749;51.140;17.184;2023-09-08T07:36:42;100841.06;;;18.60;83.89
59877;BME280;45749;51.140;17.184;2023-09-08T07:39:08;100839.16;;;18.70;84.23
59877;BME280;45749;51.140;17.184;2023-09-08T07:41:33;100839.25;;;18.79;84.38
59877;BME280;45749;51.140;17.184;2023-09-08T07:43:59;100848.75;;;18.91;84.34
59877;BME280;45749;51.140;17.184;2023-09-08T07:46:25;100842.47;;;19.00;84.79
59877;BME280;45749;51.140;17.184;2023-09-08T07:48:50;100846.38;;;19.06;85.02
59877;BME280;45749;51.140;17.184;2023-09-08T07:51:15;100846.22;;;19.07;84.84
59877;BME280;45749;51.140;17.184;2023-09-08T07:53:41;100852.31;;;19.17;84.98
59877;BME280;45749;51.140;17.184;2023-09-08T07:56:06;100850.69;;;19.25;84.85
59877;BME280;45749;51.140;17.184;2023-09-08T07:58:31;100841.09;;;19.32;85.13
59877;BME280;45749;51.140;17.184;2023-09-08T08:00:57;100844.03;;;19.47;84.91
59877;BME280;45749;51.140;17.184;2023-09-08T08:03:22;100847.75;;;19.54;84.82
59877;BME280;45749;51.140;17.184;2023-09-08T08:05:48;100845.97;;;19.62;84.84
59877;BME280;45749;51.140;17.184;2023-09-08T08:08:13;100841.56;;;19.71;84.71
59877;BME280;45749;51.140;17.184;2023-09-08T08:10:40;100835.53;;;19.77;84.35
59877;BME280;45749;51.140;17.184;2023-09-08T08:13:06;100842.47;;;19.88;84.11
59877;BME280;45749;51.140;17.184;2023-09-08T08:15:39;100845.19;;;19.96;83.85
59877;BME280;45749;51.140;17.184;2023-09-08T08:18:05;100848.56;;;20.06;84.25
59877;BME280;45749;51.140;17.184;2023-09-08T08:20:31;100834.03;;;20.09;83.88
59877;BME280;45749;51.140;17.184;2023-09-08T08:23:01;100838.25;;;20.20;84.21
59877;BME280;45749;51.140;17.184;2023-09-08T08:25:27;100831.41;;;20.25;83.95
59877;BME280;45749;51.140;17.184;2023-09-08T08:27:53;100841.81;;;20.36;83.68
59877;BME280;45749;51.140;17.184;2023-09-08T08:30:18;100839.19;;;20.45;84.15
59877;BME280;45749;51.140;17.184;2023-09-08T08:32:43;100829.19;;;20.55;83.68
59877;BME280;45749;51.140;17.184;2023-09-08T08:35:08;100829.56;;;20.68;83.81
59877;BME280;45749;51.140;17.184;2023-09-08T08:37:35;100826.53;;;20.79;83.91
59877;BME280;45749;51.140;17.184;2023-09-08T08:40:00;100829.06;;;20.89;83.54
59877;BME280;45749;51.140;17.184;2023-09-08T08:42:31;100827.41;;;21.04;83.60
59877;BME280;45749;51.140;17.184;2023-09-08T08:44:57;100829.25;;;21.12;83.95
59877;BME280;45749;51.140;17.184;2023-09-08T08:47:24;100820.69;;;21.25;83.83
59877;BME280;45749;51.140;17.184;2023-09-08T08:49:51;100818.53;;;21.37;82.89
59877;BME280;45749;51.140;17.184;2023-09-08T08:52:18;100821.38;;;21.43;82.34
59877;BME280;45749;51.140;17.184;2023-09-08T08:54:44;100818.34;;;21.54;82.77
59877;BME280;45749;51.140;17.184;2023-09-08T08:57:11;100815.47;;;21.64;82.76
59877;BME280;45749;51.140;17.184;2023-09-08T08:59:37;100817.75;;;21.84;83.23
59877;BME280;45749;51.140;17.184;2023-09-08T09:02:03;100817.56;;;21.93;83.39
59877;BME280;45749;51.140;17.184;2023-09-08T09:04:29;100817.00;;;22.06;82.62
59877;BME280;45749;51.140;17.184;2023-09-08T09:06:55;100816.97;;;22.14;81.88
59877;BME280;45749;51.140;17.184;2023-09-08T09:09:21;100815.13;;;22.23;81.88
59877;BME280;45749;51.140;17.184;2023-09-08T09:11:46;100805.66;;;22.35;81.11
59877;BME280;45749;51.140;17.184;2023-09-08T09:14:11;100805.06;;;22.48;81.50
59877;BME280;45749;51.140;17.184;2023-09-08T09:16:41;100797.13;;;22.55;82.43
59877;BME280;45749;51.140;17.184;2023-09-08T09:19:06;100805.44;;;22.68;81.01
59877;BME280;45749;51.140;17.184;2023-09-08T09:21:50;100795.28;;;22.78;81.65
59877;BME280;45749;51.140;17.184;2023-09-08T09:24:18;100791.06;;;22.84;79.89
59877;BME280;45749;51.140;17.184;2023-09-08T09:26:53;100797.31;;;22.99;79.38
59877;BME280;45749;51.140;17.184;2023-09-08T09:29:18;100798.09;;;23.08;79.98
59877;BME280;45749;51.140;17.184;2023-09-08T09:31:54;100786.63;;;23.14;79.39
59877;BME280;45749;51.140;17.184;2023-09-08T09:34:21;100793.59;;;23.23;79.08
59877;BME280;45749;51.140;17.184;2023-09-08T09:36:50;100785.44;;;23.31;77.89
59877;BME280;45749;51.140;17.184;2023-09-08T09:39:24;100787.88;;;23.41;78.74
59877;BME280;45749;51.140;17.184;2023-09-08T09:41:53;100779.22;;;23.46;78.76
59877;BME280;45749;51.140;17.184;2023-09-08T09:44:19;100783.13;;;23.58;79.63
59877;BME280;45749;51.140;17.184;2023-09-08T09:46:45;100782.84;;;23.68;79.30
59877;BME280;45749;51.140;17.184;2023-09-08T09:49:15;100784.47;;;23.77;77.91
59877;BME280;45749;51.140;17.184;2023-09-08T09:51:46;100776.03;;;23.80;77.59
59877;BME280;45749;51.140;17.184;2023-09-08T09:54:12;100781.28;;;23.88;76.58
59877;BME280;45749;51.140;17.184;2023-09-08T09:56:38;100774.91;;;23.89;76.67
59877;BME280;45749;51.140;17.184;2023-09-08T09:59:06;100777.94;;;24.01;77.23
59877;BME280;45749;51.140;17.184;2023-09-08T10:01:33;100773.09;;;24.11;77.55
59877;BME280;45749;51.140;17.184;2023-09-08T10:03:59;100775.09;;;24.24;77.18
59877;BME280;45749;51.140;17.184;2023-09-08T10:06:25;100779.53;;;24.31;75.74
59877;BME280;45749;51.140;17.184;2023-09-08T10:08:51;100767.16;;;24.37;76.80
59877;BME280;45749;51.140;17.184;2023-09-08T10:11:19;100767.25;;;24.44;75.72
59877;BME280;45749;51.140;17.184;2023-09-08T10:13:46;100756.94;;;24.47;76.52
59877;BME280;45749;51.140;17.184;2023-09-08T10:16:16;100759.06;;;24.52;75.49
59877;BME280;45749;51.140;17.184;2023-09-08T10:18:46;100763.69;;;24.58;75.71
59877;BME280;45749;51.140;17.184;2023-09-08T10:21:12;100758.38;;;24.65;75.68
59877;BME280;45749;51.140;17.184;2023-09-08T10:23:44;100755.25;;;24.68;75.52
59877;BME280;45749;51.140;17.184;2023-09-08T10:26:16;100756.63;;;24.78;75.92
59877;BME280;45749;51.140;17.184;2023-09-08T10:28:42;100756.47;;;24.87;73.75
59877;BME280;45749;51.140;17.184;2023-09-08T10:31:09;100759.88;;;24.95;74.05
59877;BME280;45749;51.140;17.184;2023-09-08T10:33:35;100749.13;;;25.02;73.52
59877;BME280;45749;51.140;17.184;2023-09-08T10:36:03;100755.22;;;25.11;74.26
59877;BME280;45749;51.140;17.184;2023-09-08T10:38:34;100752.63;;;25.17;71.94
59877;BME280;45749;51.140;17.184;2023-09-08T10:43:40;100748.13;;;25.31;72.42
59877;BME280;45749;51.140;17.184;2023-09-08T10:46:09;100754.00;;;25.41;72.90
59877;BME280;45749;51.140;17.184;2023-09-08T10:48:44;100750.94;;;25.51;72.16
59877;BME280;45749;51.140;17.184;2023-09-08T10:51:13;100742.19;;;25.49;72.11
59877;BME280;45749;51.140;17.184;2023-09-08T10:53:39;100749.94;;;25.59;70.71
59877;BME280;45749;51.140;17.184;2023-09-08T10:56:05;100741.25;;;25.63;70.22
59877;BME280;45749;51.140;17.184;2023-09-08T10:58:32;100742.94;;;25.71;71.41
59877;BME280;45749;51.140;17.184;2023-09-08T11:00:59;100746.28;;;25.80;70.62
59877;BME280;45749;51.140;17.184;2023-09-08T11:03:27;100733.06;;;25.85;70.16
59877;BME280;45749;51.140;17.184;2023-09-08T11:05:53;100725.38;;;25.88;69.43
59877;BME280;45749;51.140;17.184;2023-09-08T11:08:19;100738.50;;;25.98;69.08
59877;BME280;45749;51.140;17.184;2023-09-08T11:10:45;100726.50;;;26.07;69.67
59877;BME280;45749;51.140;17.184;2023-09-08T11:13:10;100734.22;;;26.17;68.41
59877;BME280;45749;51.140;17.184;2023-09-08T11:15:37;100727.34;;;26.21;68.68
59877;BME280;45749;51.140;17.184;2023-09-08T11:18:05;100720.09;;;26.28;68.21
59877;BME280;45749;51.140;17.184;2023-09-08T11:20:30;100723.63;;;26.35;68.61
59877;BME280;45749;51.140;17.184;2023-09-08T11:22:55;100714.28;;;26.38;68.51
59877;BME280;45749;51.140;17.184;2023-09-08T11:25:21;100718.47;;;26.47;68.45
59877;BME280;45749;51.140;17.184;2023-09-08T11:27:47;100724.56;;;26.56;67.00
59877;BME280;45749;51.140;17.184;2023-09-08T11:30:15;100714.56;;;26.56;66.44
59877;BME280;45749;51.140;17.184;2023-09-08T11:32:40;100723.91;;;26.60;65.11
59877;BME280;45749;51.140;17.184;2023-09-08T11:35:08;100714.16;;;26.59;66.04
59877;BME280;45749;51.140;17.184;2023-09-08T11:37:38;100706.44;;;26.56;65.43
59877;BME280;45749;51.140;17.184;2023-09-08T11:40:05;100717.88;;;26.72;66.28
59877;BME280;45749;51.140;17.184;2023-09-08T11:42:41;100701.44;;;26.80;66.44
59877;BME280;45749;51.140;17.184;2023-09-08T11:45:18;100713.09;;;26.87;65.88
59877;BME280;45749;51.140;17.184;2023-09-08T11:47:46;100711.03;;;26.89;64.72
59877;BME280;45749;51.140;17.184;2023-09-08T11:50:12;100709.97;;;26.90;63.95
59877;BME280;45749;51.140;17.184;2023-09-08T11:52:43;100709.56;;;26.93;64.74
59877;BME280;45749;51.140;17.184;2023-09-08T11:55:09;100710.38;;;27.00;65.06
59877;BME280;45749;51.140;17.184;2023-09-08T11:57:34;100706.81;;;27.06;64.39
59877;BME280;45749;51.140;17.184;2023-09-08T12:00:01;100707.03;;;27.11;63.97
59877;BME280;45749;51.140;17.184;2023-09-08T12:02:28;100708.06;;;27.10;61.68
59877;BME280;45749;51.140;17.184;2023-09-08T12:04:53;100709.75;;;27.11;62.63
59877;BME280;45749;51.140;17.184;2023-09-08T12:07:19;100707.25;;;27.17;62.82
59877;BME280;45749;51.140;17.184;2023-09-08T12:09:45;100706.81;;;27.26;62.05
59877;BME280;45749;51.140;17.184;2023-09-08T12:12:13;100696.63;;;27.22;61.14
59877;BME280;45749;51.140;17.184;2023-09-08T12:14:42;100699.75;;;27.19;61.35
59877;BME280;45749;51.140;17.184;2023-09-08T12:17:08;100702.88;;;27.22;62.55
59877;BME280;45749;51.140;17.184;2023-09-08T12:19:33;100694.09;;;27.27;62.03
59877;BME280;45749;51.140;17.184;2023-09-08T12:22:03;100695.97;;;27.33;60.78
59877;BME280;45749;51.140;17.184;2023-09-08T12:27:19;100695.13;;;27.39;60.60
59877;BME280;45749;51.140;17.184;2023-09-08T12:30:03;100684.72;;;27.36;60.49
59877;BME280;45749;51.140;17.184;2023-09-08T12:32:33;100688.66;;;27.40;59.86
59877;BME280;45749;51.140;17.184;2023-09-08T12:34:59;100695.13;;;27.39;59.84
59877;BME280;45749;51.140;17.184;2023-09-08T12:37:26;100678.66;;;27.34;59.84
59877;BME280;45749;51.140;17.184;2023-09-08T12:39:56;100684.47;;;27.44;60.69
59877;BME280;45749;51.140;17.184;2023-09-08T12:42:22;100677.81;;;27.40;59.59
59877;BME280;45749;51.140;17.184;2023-09-08T12:44:51;100690.50;;;27.53;60.18